createdAt,value
2023-10-01T00:01:57.113Z,24.90
2023-10-01T00:04:26.269Z,24.80
2023-10-01T00:06:55.524Z,24.80
2023-10-01T00:09:24.590Z,24.80
2023-10-01T00:11:53.517Z,24.60
2023-10-01T00:14:28.181Z,24.60
2023-10-01T00:17:00.407Z,24.60
2023-10-01T00:19:29.602Z,24.70
2023-10-01T00:21:58.994Z,24.70
2023-10-01T00:24:28.136Z,24.70
2023-10-01T00:26:57.296Z,24.50
2023-10-01T00:29:26.244Z,24.40
2023-10-01T00:31:56.636Z,24.30
2023-10-01T00:34:27.169Z,24.30
2023-10-01T00:36:56.360Z,24.40
2023-10-01T00:39:25.305Z,24.40
2023-10-01T00:41:54.337Z,24.40
2023-10-01T00:44:23.346Z,24.50
2023-10-01T00:46:52.497Z,24.60
2023-10-01T00:49:24.418Z,24.60
2023-10-01T00:51:55.221Z,24.70
2023-10-01T00:54:24.433Z,24.60
2023-10-01T00:56:53.384Z,24.70
2023-10-01T00:59:22.502Z,24.60
2023-10-01T01:01:51.893Z,24.60
2023-10-01T01:04:24.237Z,24.50
2023-10-01T01:06:55.942Z,24.60
2023-10-01T01:09:25.454Z,24.50
2023-10-01T01:11:54.460Z,24.30
2023-10-01T01:14:23.721Z,24.30
2023-10-01T01:16:53.529Z,24.40
2023-10-01T01:19:22.649Z,24.50
2023-10-01T01:21:51.989Z,24.50
2023-10-01T01:24:24.341Z,24.50
2023-10-01T01:26:53.855Z,24.50
2023-10-01T01:29:30.991Z,24.60
2023-10-01T01:32:08.915Z,24.60
2023-10-01T01:34:39.115Z,24.50
2023-10-01T01:37:09.216Z,24.50
2023-10-01T01:39:50.427Z,24.50
2023-10-01T01:42:22.694Z,24.50
2023-10-01T01:45:11.710Z,24.40
2023-10-01T01:47:40.799Z,24.30
2023-10-01T01:50:19.880Z,24.30
2023-10-01T01:52:50.991Z,24.20
2023-10-01T01:55:31.816Z,24.10
2023-10-01T01:58:10.481Z,24.20
2023-10-01T02:00:48.215Z,24.20
2023-10-01T02:03:19.352Z,24.20
2023-10-01T02:05:50.624Z,24.10
2023-10-01T02:08:26.191Z,24.10
2023-10-01T02:10:57.668Z,24.00
2023-10-01T02:13:28.501Z,24.00
2023-10-01T02:16:17.883Z,24.00
2023-10-01T02:18:57.809Z,24.10
2023-10-01T02:21:44.447Z,24.10
2023-10-01T02:24:15.336Z,24.10
2023-10-01T02:26:47.705Z,24.10
2023-10-01T02:29:17.779Z,24.00
2023-10-01T02:31:49.976Z,24.00
2023-10-01T02:34:21.413Z,24.00
2023-10-01T02:36:51.743Z,24.00
2023-10-01T02:39:28.746Z,23.90
2023-10-01T02:42:11.076Z,23.90
2023-10-01T02:44:40.431Z,23.80
2023-10-01T02:47:18.788Z,23.70
2023-10-01T02:49:51.296Z,23.70
2023-10-01T02:52:26.919Z,23.70
2023-10-01T02:54:59.087Z,23.80
2023-10-01T02:57:35.044Z,23.60
2023-10-01T03:00:21.687Z,23.50
2023-10-01T03:02:55.661Z,23.50
2023-10-01T03:05:30.920Z,23.50
2023-10-01T03:08:05.493Z,23.60
2023-10-01T03:10:34.250Z,23.60
2023-10-01T03:13:17.014Z,23.50
2023-10-01T03:16:05.352Z,23.60
2023-10-01T03:18:37.507Z,23.80
2023-10-01T03:21:08.710Z,23.70
2023-10-01T03:23:37.873Z,23.60
2023-10-01T03:26:11.179Z,23.70
2023-10-01T03:28:55.642Z,23.80
2023-10-01T03:31:25.197Z,23.80
2023-10-01T03:33:55.526Z,24.00
2023-10-01T03:36:27.592Z,23.90
2023-10-01T03:39:01.534Z,23.80
2023-10-01T03:41:50.603Z,23.80
2023-10-01T03:44:41.227Z,23.80
2023-10-01T03:47:10.167Z,23.70
2023-10-01T03:49:45.642Z,23.60
2023-10-01T03:52:16.450Z,23.60
2023-10-01T03:55:01.407Z,23.80
2023-10-01T03:57:31.755Z,23.80
2023-10-01T04:00:22.134Z,23.90
2023-10-01T04:02:51.097Z,24.10
2023-10-01T04:05:32.603Z,24.10
2023-10-01T04:08:07.897Z,24.20
2023-10-01T04:10:39.773Z,24.10
2023-10-01T04:13:25.302Z,24.00
2023-10-01T04:15:58.103Z,24.10
2023-10-01T04:18:30.470Z,24.30
2023-10-01T04:21:18.197Z,24.20
2023-10-01T04:23:50.007Z,24.20
2023-10-01T04:26:20.173Z,24.30
2023-10-01T04:28:52.210Z,24.30
2023-10-01T04:31:44.068Z,24.20
2023-10-01T04:34:14.214Z,24.20
2023-10-01T04:36:44.468Z,24.20
2023-10-01T04:39:14.026Z,24.20
2023-10-01T04:41:43.016Z,24.00
2023-10-01T04:44:15.106Z,24.00
2023-10-01T04:46:47.431Z,24.10
2023-10-01T04:49:44.414Z,24.00
2023-10-01T04:52:13.872Z,24.10
2023-10-01T04:54:46.507Z,24.20
2023-10-01T04:57:15.723Z,24.20
2023-10-01T04:59:59.057Z,24.20
2023-10-01T05:02:33.014Z,24.20
2023-10-01T05:05:12.422Z,24.20
2023-10-01T05:07:43.889Z,24.00
2023-10-01T05:10:13.587Z,23.80
2023-10-01T05:12:46.266Z,23.90
2023-10-01T05:15:26.694Z,23.80
2023-10-01T05:17:58.184Z,23.90
2023-10-01T05:20:28.020Z,23.90
2023-10-01T05:23:00.588Z,23.90
2023-10-01T05:25:33.293Z,24.00
2023-10-01T05:28:07.712Z,23.90
2023-10-01T05:30:39.761Z,23.80
2023-10-01T05:33:13.369Z,23.80
2023-10-01T05:35:46.078Z,23.70
2023-10-01T05:38:18.180Z,23.70
2023-10-01T05:40:47.534Z,23.80
2023-10-01T05:43:16.927Z,23.80
2023-10-01T05:45:52.606Z,23.70
2023-10-01T05:48:24.834Z,23.70
2023-10-01T05:50:54.712Z,23.80
2023-10-01T05:53:23.705Z,23.70
2023-10-01T05:55:52.645Z,23.70
2023-10-01T05:58:23.519Z,23.70
2023-10-01T06:01:07.619Z,23.70
2023-10-01T06:03:42.501Z,23.70
2023-10-01T06:06:15.598Z,23.60
2023-10-01T06:08:51.216Z,23.70
2023-10-01T06:11:39.707Z,23.70
2023-10-01T06:14:09.676Z,23.80
2023-10-01T06:16:40.284Z,23.80
2023-10-01T06:19:13.504Z,23.70
2023-10-01T06:21:42.718Z,23.80
2023-10-01T06:24:12.565Z,23.90
2023-10-01T06:26:44.646Z,23.90
2023-10-01T06:29:15.069Z,23.80
2023-10-01T06:32:02.218Z,23.90
2023-10-01T06:34:33.810Z,23.90
2023-10-01T06:37:03.750Z,24.00
2023-10-01T06:39:36.527Z,24.00
2023-10-01T06:42:21.494Z,24.00
2023-10-01T06:44:54.214Z,24.00
2023-10-01T06:47:25.422Z,24.10
2023-10-01T06:50:09.329Z,24.10
2023-10-01T06:52:43.746Z,24.20
2023-10-01T06:55:27.749Z,24.00
2023-10-01T06:57:57.628Z,24.00
2023-10-01T07:00:27.360Z,24.10
2023-10-01T07:03:15.192Z,24.10
2023-10-01T07:05:48.049Z,24.20
2023-10-01T07:08:19.634Z,24.20
2023-10-01T07:10:52.587Z,24.30
2023-10-01T07:13:23.805Z,24.40
2023-10-01T07:15:54.137Z,24.30
2023-10-01T07:18:23.455Z,24.30
2023-10-01T07:20:54.087Z,24.40
2023-10-01T07:23:23.793Z,24.40
2023-10-01T07:26:02.320Z,24.40
2023-10-01T07:28:31.882Z,24.40
2023-10-01T07:31:04.137Z,24.50
2023-10-01T07:33:34.929Z,24.60
2023-10-01T07:36:12.900Z,24.70
2023-10-01T07:38:50.840Z,24.70
2023-10-01T07:41:21.713Z,24.70
2023-10-01T07:43:50.804Z,24.70
2023-10-01T07:46:21.227Z,24.80
2023-10-01T07:48:53.292Z,24.70
2023-10-01T07:51:28.621Z,24.50
2023-10-01T07:54:01.472Z,24.40
2023-10-01T07:56:30.649Z,24.60
2023-10-01T07:59:19.011Z,24.70
2023-10-01T08:02:00.977Z,24.90
2023-10-01T08:04:48.024Z,24.90
2023-10-01T08:07:19.277Z,25.00
2023-10-01T08:09:52.929Z,25.10
2023-10-01T08:12:30.385Z,25.20
2023-10-01T08:15:19.834Z,25.30
2023-10-01T08:17:49.128Z,25.40
2023-10-01T08:20:18.712Z,25.40
2023-10-01T08:23:03.210Z,25.40
2023-10-01T08:25:34.241Z,25.10
2023-10-01T08:28:10.557Z,25.30
2023-10-01T08:30:41.461Z,25.50
2023-10-01T08:33:20.621Z,25.20
2023-10-01T08:35:58.321Z,25.20
2023-10-01T08:38:31.304Z,25.30
2023-10-01T08:41:02.400Z,25.30
2023-10-01T08:43:36.525Z,25.20
2023-10-01T08:46:14.454Z,25.40
2023-10-01T08:48:44.797Z,25.60
2023-10-01T08:51:18.024Z,25.60
2023-10-01T08:53:49.166Z,25.50
2023-10-01T08:56:33.769Z,25.60
2023-10-01T08:59:23.079Z,25.90
2023-10-01T09:01:54.166Z,26.00
2023-10-01T09:04:45.738Z,26.00
2023-10-01T09:07:19.919Z,26.20
2023-10-01T09:10:09.187Z,26.00
2023-10-01T09:12:47.409Z,26.00
2023-10-01T09:15:28.964Z,25.80
2023-10-01T09:18:12.293Z,25.60
2023-10-01T09:20:43.814Z,25.70
2023-10-01T09:23:13.547Z,25.90
2023-10-01T09:25:44.528Z,25.90
2023-10-01T09:28:31.057Z,25.90
2023-10-01T09:31:03.692Z,26.00
2023-10-01T09:33:33.899Z,26.20
2023-10-01T09:36:04.643Z,26.20
2023-10-01T09:38:34.453Z,26.30
2023-10-01T09:41:05.480Z,26.50
2023-10-01T09:43:37.488Z,26.50
2023-10-01T09:46:09.268Z,26.50
2023-10-01T09:48:50.477Z,26.50
2023-10-01T09:51:25.264Z,26.30
2023-10-01T09:54:01.909Z,26.10
2023-10-01T09:56:48.331Z,26.30
2023-10-01T09:59:18.385Z,26.50
2023-10-01T10:01:47.930Z,26.60
2023-10-01T10:04:22.144Z,26.70
2023-10-01T10:07:01.544Z,26.70
2023-10-01T10:09:33.310Z,26.50
2023-10-01T10:12:09.662Z,26.70
2023-10-01T10:14:58.140Z,26.70
2023-10-01T10:17:40.238Z,26.60
2023-10-01T10:23:17.598Z,26.90
2023-10-01T10:25:47.304Z,27.00
2023-10-01T10:28:27.837Z,26.60
2023-10-01T10:31:32.257Z,26.70
2023-10-01T10:34:27.651Z,26.70
2023-10-01T10:36:56.676Z,26.90
2023-10-01T10:40:28.123Z,27.00
2023-10-01T10:43:23.457Z,27.10
2023-10-01T10:46:07.590Z,27.00
2023-10-01T10:49:04.871Z,27.20
2023-10-01T10:51:49.749Z,27.30
2023-10-01T10:54:32.351Z,27.40
2023-10-01T10:57:07.042Z,27.40
2023-10-01T10:59:37.033Z,27.30
2023-10-01T11:02:08.763Z,27.20
2023-10-01T11:04:43.506Z,27.20
2023-10-01T11:07:14.606Z,27.20
2023-10-01T11:09:43.681Z,27.20
2023-10-01T11:12:23.163Z,27.10
2023-10-01T11:15:21.423Z,27.10
2023-10-01T11:18:02.714Z,27.00
2023-10-01T11:20:35.487Z,27.30
2023-10-01T11:23:10.232Z,27.30
2023-10-01T11:25:42.022Z,27.30
2023-10-01T11:28:11.522Z,27.40
2023-10-01T11:30:44.445Z,27.30
2023-10-01T11:33:17.649Z,27.40
2023-10-01T11:36:09.293Z,27.40
2023-10-01T11:38:41.649Z,27.40
2023-10-01T11:41:11.511Z,27.50
2023-10-01T11:43:43.578Z,27.50
2023-10-01T11:46:23.184Z,27.20
2023-10-01T11:49:01.616Z,27.30
2023-10-01T11:51:33.711Z,27.30
2023-10-01T11:54:14.742Z,27.40
2023-10-01T11:56:46.277Z,27.50
2023-10-01T11:59:20.598Z,27.30
2023-10-01T12:01:52.555Z,27.20
2023-10-01T12:04:45.568Z,27.30
2023-10-01T12:07:19.236Z,27.40
2023-10-01T12:09:52.665Z,27.60
2023-10-01T12:12:23.412Z,27.60
2023-10-01T12:14:55.445Z,27.60
2023-10-01T12:17:26.733Z,27.80
2023-10-01T12:20:01.394Z,27.80
2023-10-01T12:22:32.857Z,27.80
2023-10-01T12:25:02.909Z,27.60
2023-10-01T12:27:42.306Z,27.90
2023-10-01T12:30:31.713Z,27.60
2023-10-01T12:33:05.337Z,27.60
2023-10-01T12:35:40.318Z,27.60
2023-10-01T12:38:29.549Z,27.70
2023-10-01T12:40:58.732Z,27.60
2023-10-01T12:43:39.846Z,27.30
2023-10-01T12:46:11.174Z,27.40
2023-10-01T12:48:41.496Z,27.60
2023-10-01T12:51:14.315Z,27.60
2023-10-01T12:53:49.506Z,27.60
2023-10-01T12:56:22.836Z,27.70
2023-10-01T12:58:57.320Z,27.60
2023-10-01T13:01:34.221Z,27.60
2023-10-01T13:04:23.416Z,27.50
2023-10-01T13:07:02.611Z,27.10
2023-10-01T13:09:52.517Z,27.30
2023-10-01T13:12:26.419Z,27.40
2023-10-01T13:15:13.630Z,27.60
2023-10-01T13:17:46.228Z,27.50
2023-10-01T13:20:28.336Z,27.40
2023-10-01T13:23:08.450Z,27.20
2023-10-01T13:25:39.160Z,27.30
2023-10-01T13:28:09.250Z,27.10
2023-10-01T13:30:53.815Z,27.30
2023-10-01T13:33:24.818Z,27.00
2023-10-01T13:35:58.834Z,27.00
2023-10-01T13:38:58.420Z,26.70
2023-10-01T13:41:45.843Z,26.50
2023-10-01T13:44:32.652Z,26.60
2023-10-01T13:47:19.423Z,26.50
2023-10-01T13:50:06.949Z,26.60
2023-10-01T13:52:53.651Z,26.60
2023-10-01T13:55:56.399Z,26.70
2023-10-01T13:58:44.178Z,26.50
2023-10-01T14:01:31.209Z,26.90
2023-10-01T14:04:18.240Z,27.00
2023-10-01T14:07:04.910Z,27.10
2023-10-01T14:09:50.808Z,26.90
2023-10-01T14:12:36.273Z,26.80
2023-10-01T14:15:06.598Z,26.90
2023-10-01T14:17:35.751Z,26.80
2023-10-01T14:20:10.350Z,26.80
2023-10-01T14:22:51.377Z,26.80
2023-10-01T14:25:22.142Z,26.50
2023-10-01T14:27:52.928Z,26.50
2023-10-01T14:30:28.410Z,26.60
2023-10-01T14:33:00.383Z,26.60
2023-10-01T14:35:39.246Z,26.20
2023-10-01T14:38:08.586Z,26.30
2023-10-01T14:40:38.027Z,26.70
2023-10-01T14:43:08.562Z,27.50
2023-10-01T14:45:45.095Z,27.70
2023-10-01T14:48:14.238Z,27.60
2023-10-01T14:50:43.325Z,27.70
2023-10-01T14:53:14.076Z,28.40
2023-10-01T14:55:44.168Z,28.60
2023-10-01T14:58:16.768Z,28.30
2023-10-01T15:00:56.107Z,28.00
2023-10-01T15:03:55.508Z,28.40
2023-10-01T15:06:25.865Z,28.00
2023-10-01T15:09:01.628Z,27.90
2023-10-01T15:11:32.905Z,27.40
2023-10-01T15:14:14.167Z,27.50
2023-10-01T15:17:09.078Z,27.90
2023-10-01T15:19:49.560Z,27.80
2023-10-01T15:22:20.308Z,28.00
2023-10-01T15:24:50.335Z,28.50
2023-10-01T15:27:25.973Z,28.60
2023-10-01T15:29:58.601Z,28.20
2023-10-01T15:32:32.098Z,28.00
2023-10-01T15:35:01.643Z,28.40
2023-10-01T15:37:33.391Z,28.40
2023-10-01T15:40:23.443Z,28.30
2023-10-01T15:42:55.889Z,28.60
2023-10-01T15:45:27.253Z,28.10
2023-10-01T15:48:01.007Z,28.50
2023-10-01T15:50:40.829Z,28.40
2023-10-01T15:53:19.675Z,28.50
2023-10-01T15:56:00.382Z,27.70
2023-10-01T15:58:29.730Z,27.20
2023-10-01T16:01:01.338Z,26.80
2023-10-01T16:03:34.007Z,26.20
2023-10-01T16:06:11.443Z,26.30
2023-10-01T16:08:45.108Z,26.40
2023-10-01T16:11:15.444Z,26.30
2023-10-01T16:13:55.396Z,26.30
2023-10-01T16:16:28.877Z,26.00
2023-10-01T16:19:02.166Z,26.10
2023-10-01T16:21:33.759Z,26.10
2023-10-01T16:24:04.465Z,26.20
2023-10-01T16:26:34.486Z,26.40
2023-10-01T16:29:08.869Z,26.30
2023-10-01T16:31:41.429Z,26.20
2023-10-01T16:34:10.786Z,26.20
2023-10-01T16:36:40.286Z,26.00
2023-10-01T16:39:19.332Z,26.10
2023-10-01T16:41:51.309Z,26.00
2023-10-01T16:44:21.071Z,26.30
2023-10-01T16:46:59.546Z,26.10
2023-10-01T16:49:29.320Z,25.80
2023-10-01T16:51:59.275Z,25.70
2023-10-01T16:54:40.080Z,25.80
2023-10-01T16:57:14.436Z,25.60
2023-10-01T16:59:57.771Z,25.60
2023-10-01T17:02:31.246Z,25.50
2023-10-01T17:05:07.935Z,25.40
2023-10-01T17:07:43.148Z,25.60
2023-10-01T17:10:15.308Z,25.60
2023-10-01T17:12:45.545Z,25.50
2023-10-01T17:15:42.984Z,25.50
2023-10-01T17:18:18.906Z,25.50
2023-10-01T17:20:52.366Z,25.50
2023-10-01T17:23:22.305Z,25.40
2023-10-01T17:26:00.733Z,25.30
2023-10-01T17:28:50.278Z,25.30
2023-10-01T17:31:20.527Z,25.20
2023-10-01T17:33:52.214Z,25.20
2023-10-01T17:36:21.384Z,25.10
2023-10-01T17:38:51.858Z,25.00
2023-10-01T17:41:21.847Z,25.00
2023-10-01T17:43:59.870Z,24.90
2023-10-01T17:46:36.369Z,24.80
2023-10-01T17:49:10.137Z,24.60
2023-10-01T17:51:45.336Z,24.60
2023-10-01T17:54:19.341Z,24.50
2023-10-01T17:56:48.435Z,24.50
2023-10-01T17:59:19.854Z,24.60
2023-10-01T18:01:53.522Z,24.70
2023-10-01T18:04:25.625Z,24.60
2023-10-01T18:06:57.565Z,24.50
2023-10-01T18:09:28.361Z,24.60
2023-10-01T18:12:04.271Z,24.70
2023-10-01T18:14:34.995Z,24.60
2023-10-01T18:17:05.614Z,24.60
2023-10-01T18:19:48.911Z,24.60
2023-10-01T18:22:18.617Z,24.50
2023-10-01T18:24:47.744Z,24.50
2023-10-01T18:27:24.975Z,24.50
2023-10-01T18:29:58.855Z,24.60
2023-10-01T18:32:28.950Z,24.60
2023-10-01T18:34:59.676Z,24.60
2023-10-01T18:37:37.511Z,24.40
2023-10-01T18:40:15.011Z,24.40
2023-10-01T18:42:44.768Z,24.50
2023-10-01T18:45:13.753Z,24.40
2023-10-01T18:47:42.849Z,24.40
2023-10-01T18:50:16.078Z,24.40
2023-10-01T18:52:45.357Z,24.50
2023-10-01T18:55:15.715Z,24.50
2023-10-01T18:57:45.099Z,24.40
2023-10-01T19:00:22.600Z,24.60
2023-10-01T19:02:52.837Z,24.60
2023-10-01T19:05:23.392Z,24.50
2023-10-01T19:07:52.547Z,24.40
2023-10-01T19:10:21.757Z,24.40
2023-10-01T19:12:51.053Z,24.20
2023-10-01T19:15:21.929Z,24.20
2023-10-01T19:17:51.301Z,24.40
2023-10-01T19:20:22.967Z,24.20
2023-10-01T19:22:58.973Z,24.10
2023-10-01T19:25:30.520Z,24.20
2023-10-01T19:28:02.291Z,24.00
2023-10-01T19:30:37.004Z,24.10
2023-10-01T19:33:07.376Z,24.20
2023-10-01T19:35:39.160Z,24.20
2023-10-01T19:38:09.702Z,24.20
2023-10-01T19:40:39.132Z,24.10
2023-10-01T19:43:08.669Z,24.00
2023-10-01T19:45:39.020Z,24.00
2023-10-01T19:48:09.407Z,24.10
2023-10-01T19:50:42.417Z,24.00
2023-10-01T19:53:24.277Z,23.80
2023-10-01T19:55:56.860Z,23.90
2023-10-01T19:58:32.694Z,24.00
2023-10-01T20:01:16.832Z,23.90
2023-10-01T20:03:48.614Z,23.80
2023-10-01T20:06:22.396Z,23.70
2023-10-01T20:08:57.215Z,23.70
2023-10-01T20:11:29.814Z,23.80
2023-10-01T20:14:00.332Z,24.10
2023-10-01T20:16:32.109Z,24.00
2023-10-01T20:19:01.874Z,23.90
2023-10-01T20:21:32.714Z,23.90
2023-10-01T20:24:02.470Z,23.70
2023-10-01T20:26:33.635Z,23.70
2023-10-01T20:29:03.516Z,23.80
2023-10-01T20:31:32.763Z,23.80
2023-10-01T20:34:02.502Z,23.70
2023-10-01T20:36:39.087Z,23.70
2023-10-01T20:39:09.017Z,23.50
2023-10-01T20:41:38.295Z,23.50
2023-10-01T20:44:08.527Z,23.60
2023-10-01T20:46:38.330Z,23.50
2023-10-01T20:49:09.112Z,23.60
2023-10-01T20:51:43.609Z,23.60
2023-10-01T20:54:16.595Z,23.50
2023-10-01T20:56:53.844Z,23.50
2023-10-01T20:59:23.880Z,23.50
2023-10-01T21:01:55.172Z,23.50
2023-10-01T21:04:27.092Z,23.50
2023-10-01T21:07:03.398Z,23.50
2023-10-01T21:09:39.570Z,23.50
2023-10-01T21:12:13.473Z,23.50
2023-10-01T21:14:48.433Z,23.50
2023-10-01T21:17:23.672Z,23.70
2023-10-01T21:20:11.951Z,23.60
2023-10-01T21:22:44.470Z,23.70
2023-10-01T21:25:24.668Z,23.90
2023-10-01T21:27:55.378Z,23.70
2023-10-01T21:30:25.052Z,23.50
2023-10-01T21:32:56.706Z,23.80
2023-10-01T21:35:27.495Z,23.70
2023-10-01T21:38:09.515Z,23.60
2023-10-01T21:40:39.387Z,23.60
2023-10-01T21:43:08.420Z,23.70
2023-10-01T21:45:59.965Z,23.70
2023-10-01T21:48:30.357Z,23.60
2023-10-01T21:51:03.938Z,23.60
2023-10-01T21:53:36.706Z,23.60
2023-10-01T21:56:07.758Z,23.50
2023-10-01T21:58:38.974Z,23.50
2023-10-01T22:01:22.269Z,23.60
2023-10-01T22:03:53.322Z,23.60
2023-10-01T22:06:30.191Z,23.50
2023-10-01T22:09:01.820Z,23.50
2023-10-01T22:11:32.558Z,23.30
2023-10-01T22:14:07.404Z,23.30
2023-10-01T22:16:45.311Z,23.30
2023-10-01T22:19:16.995Z,23.20
2023-10-01T22:21:50.732Z,23.20
2023-10-01T22:24:28.012Z,23.30
2023-10-01T22:26:57.536Z,23.50
2023-10-01T22:29:29.572Z,23.40
2023-10-01T22:32:00.497Z,23.30
2023-10-01T22:34:30.345Z,23.50
2023-10-01T22:37:00.295Z,23.60
2023-10-01T22:39:49.841Z,23.60
2023-10-01T22:42:32.077Z,23.60
2023-10-01T22:45:08.221Z,23.60
2023-10-01T22:47:42.495Z,23.60
2023-10-01T22:50:14.573Z,23.50
2023-10-01T22:52:46.396Z,23.50
2023-10-01T22:55:17.671Z,23.60
2023-10-01T22:57:47.631Z,23.60
2023-10-01T23:00:23.960Z,23.60
2023-10-01T23:02:55.065Z,23.60
2023-10-01T23:05:39.996Z,23.60
2023-10-01T23:08:10.779Z,23.50
2023-10-01T23:10:42.482Z,23.50
2023-10-01T23:13:13.135Z,23.50
2023-10-01T23:15:43.539Z,23.40
2023-10-01T23:18:19.829Z,23.40
2023-10-01T23:20:53.452Z,23.40
2023-10-01T23:23:29.137Z,23.40
2023-10-01T23:26:13.046Z,23.40
2023-10-01T23:28:43.014Z,23.30
2023-10-01T23:31:16.974Z,23.20
2023-10-01T23:33:52.345Z,22.90
2023-10-01T23:36:37.932Z,22.90
2023-10-01T23:39:23.400Z,22.70
2023-10-01T23:41:54.244Z,22.80
2023-10-01T23:44:28.868Z,22.70
2023-10-01T23:46:59.706Z,22.60
2023-10-01T23:49:30.523Z,22.60
2023-10-01T23:52:04.798Z,22.60
2023-10-01T23:54:38.469Z,22.60
2023-10-01T23:57:14.964Z,22.60
2023-10-01T23:59:50.778Z,22.50
